sensor_id;sensor_type;location;lat;lon;timestamp;P1;durP1;ratioP1;P2;durP2;ratioP2
27863;SDS011;15980;51.092;13.916;2023-03-01T00:05:21;39.92;;;15.15;;
27863;SDS011;15980;51.092;13.916;2023-03-01T00:15:21;33.90;;;14.48;;
27863;SDS011;15980;51.092;13.916;2023-03-01T00:25:22;41.10;;;15.18;;
27863;SDS011;15980;51.092;13.916;2023-03-01T00:35:22;50.67;;;18.27;;
27863;SDS011;15980;51.092;13.916;2023-03-01T00:45:23;44.05;;;17.90;;
27863;SDS011;15980;51.092;13.916;2023-03-01T00:55:24;45.83;;;17.57;;
27863;SDS011;15980;51.092;13.916;2023-03-01T01:05:25;44.35;;;16.95;;
27863;SDS011;15980;51.092;13.916;2023-03-01T01:15:25;43.80;;;17.05;;
27863;SDS011;15980;51.092;13.916;2023-03-01T01:25:26;48.00;;;17.07;;
27863;SDS011;15980;51.092;13.916;2023-03-01T01:35:27;49.20;;;16.88;;
27863;SDS011;15980;51.092;13.916;2023-03-01T01:55:30;51.08;;;18.08;;
27863;SDS011;15980;51.092;13.916;2023-03-01T02:05:51;45.97;;;18.07;;
27863;SDS011;15980;51.092;13.916;2023-03-01T02:16:01;50.60;;;17.73;;
27863;SDS011;15980;51.092;13.916;2023-03-01T02:36:15;55.72;;;19.40;;
27863;SDS011;15980;51.092;13.916;2023-03-01T02:46:24;47.42;;;19.02;;
27863;SDS011;15980;51.092;13.916;2023-03-01T02:56:25;51.35;;;18.65;;
27863;SDS011;15980;51.092;13.916;2023-03-01T03:06:26;43.78;;;18.35;;
27863;SDS011;15980;51.092;13.916;2023-03-01T03:16:26;48.80;;;17.27;;
27863;SDS011;15980;51.092;13.916;2023-03-01T03:26:26;50.13;;;18.98;;
27863;SDS011;15980;51.092;13.916;2023-03-01T03:36:27;49.53;;;17.63;;
27863;SDS011;15980;51.092;13.916;2023-03-01T03:46:27;47.55;;;17.70;;
27863;SDS011;15980;51.092;13.916;2023-03-01T03:56:28;53.80;;;17.25;;
27863;SDS011;15980;51.092;13.916;2023-03-01T04:06:28;47.67;;;16.47;;
27863;SDS011;15980;51.092;13.916;2023-03-01T04:16:29;50.23;;;17.03;;
27863;SDS011;15980;51.092;13.916;2023-03-01T04:26:30;52.63;;;17.55;;
27863;SDS011;15980;51.092;13.916;2023-03-01T04:36:30;51.08;;;17.65;;
27863;SDS011;15980;51.092;13.916;2023-03-01T04:46:30;48.35;;;17.23;;
27863;SDS011;15980;51.092;13.916;2023-03-01T04:56:30;48.65;;;17.13;;
27863;SDS011;15980;51.092;13.916;2023-03-01T05:06:31;49.97;;;17.45;;
27863;SDS011;15980;51.092;13.916;2023-03-01T05:16:31;46.42;;;16.92;;
27863;SDS011;15980;51.092;13.916;2023-03-01T05:26:32;83.53;;;25.30;;
27863;SDS011;15980;51.092;13.916;2023-03-01T05:36:32;45.47;;;18.08;;
27863;SDS011;15980;51.092;13.916;2023-03-01T05:46:33;40.05;;;15.68;;
27863;SDS011;15980;51.092;13.916;2023-03-01T05:56:33;47.45;;;15.90;;
27863;SDS011;15980;51.092;13.916;2023-03-01T06:16:35;40.90;;;13.63;;
27863;SDS011;15980;51.092;13.916;2023-03-01T06:26:35;80.55;;;28.83;;
27863;SDS011;15980;51.092;13.916;2023-03-01T06:36:35;60.33;;;22.02;;
27863;SDS011;15980;51.092;13.916;2023-03-01T06:46:36;63.53;;;26.17;;
27863;SDS011;15980;51.092;13.916;2023-03-01T06:56:36;75.30;;;25.88;;
27863;SDS011;15980;51.092;13.916;2023-03-01T07:06:36;77.60;;;24.73;;
27863;SDS011;15980;51.092;13.916;2023-03-01T07:16:37;62.30;;;24.95;;
27863;SDS011;15980;51.092;13.916;2023-03-01T07:26:37;72.10;;;24.23;;
27863;SDS011;15980;51.092;13.916;2023-03-01T07:36:37;68.55;;;27.50;;
27863;SDS011;15980;51.092;13.916;2023-03-01T07:46:38;60.80;;;23.65;;
27863;SDS011;15980;51.092;13.916;2023-03-01T07:56:39;62.38;;;24.70;;
27863;SDS011;15980;51.092;13.916;2023-03-01T08:06:39;64.95;;;25.67;;
27863;SDS011;15980;51.092;13.916;2023-03-01T08:16:40;62.55;;;22.73;;
27863;SDS011;15980;51.092;13.916;2023-03-01T08:26:40;56.10;;;22.83;;
27863;SDS011;15980;51.092;13.916;2023-03-01T08:36:41;62.65;;;24.38;;
27863;SDS011;15980;51.092;13.916;2023-03-01T08:46:43;56.40;;;23.92;;
27863;SDS011;15980;51.092;13.916;2023-03-01T08:56:44;62.90;;;24.08;;
27863;SDS011;15980;51.092;13.916;2023-03-01T09:06:45;62.70;;;23.38;;
27863;SDS011;15980;51.092;13.916;2023-03-01T09:16:45;53.90;;;22.27;;
27863;SDS011;15980;51.092;13.916;2023-03-01T09:26:46;51.40;;;20.88;;
27863;SDS011;15980;51.092;13.916;2023-03-01T09:36:47;42.03;;;16.80;;
27863;SDS011;15980;51.092;13.916;2023-03-01T09:46:47;60.65;;;21.42;;
27863;SDS011;15980;51.092;13.916;2023-03-01T09:56:57;52.92;;;21.88;;
27863;SDS011;15980;51.092;13.916;2023-03-01T10:07:07;51.20;;;20.50;;
27863;SDS011;15980;51.092;13.916;2023-03-01T10:17:37;43.08;;;18.63;;
27863;SDS011;15980;51.092;13.916;2023-03-01T10:28:26;44.53;;;18.10;;
27863;SDS011;15980;51.092;13.916;2023-03-01T10:38:26;43.92;;;19.42;;
27863;SDS011;15980;51.092;13.916;2023-03-01T10:48:31;37.17;;;16.60;;
27863;SDS011;15980;51.092;13.916;2023-03-01T10:58:32;41.65;;;17.98;;
27863;SDS011;15980;51.092;13.916;2023-03-01T11:08:38;41.58;;;17.70;;
27863;SDS011;15980;51.092;13.916;2023-03-01T11:18:39;40.35;;;17.13;;
27863;SDS011;15980;51.092;13.916;2023-03-01T11:28:40;35.53;;;15.50;;
27863;SDS011;15980;51.092;13.916;2023-03-01T12:40:50;42.13;;;16.98;;
27863;SDS011;15980;51.092;13.916;2023-03-01T12:51:14;47.78;;;17.50;;
27863;SDS011;15980;51.092;13.916;2023-03-01T13:11:49;38.73;;;17.03;;
27863;SDS011;15980;51.092;13.916;2023-03-01T13:21:50;37.83;;;17.27;;
27863;SDS011;15980;51.092;13.916;2023-03-01T13:41:54;35.88;;;16.63;;
27863;SDS011;15980;51.092;13.916;2023-03-01T13:51:55;40.58;;;16.30;;
27863;SDS011;15980;51.092;13.916;2023-03-01T14:01:58;38.55;;;16.25;;
27863;SDS011;15980;51.092;13.916;2023-03-01T14:22:26;39.30;;;16.03;;
27863;SDS011;15980;51.092;13.916;2023-03-01T14:32:30;31.33;;;15.18;;
27863;SDS011;15980;51.092;13.916;2023-03-01T14:42:34;38.08;;;14.43;;
27863;SDS011;15980;51.092;13.916;2023-03-01T14:52:40;33.22;;;13.50;;
27863;SDS011;15980;51.092;13.916;2023-03-01T15:02:43;29.40;;;13.45;;
27863;SDS011;15980;51.092;13.916;2023-03-01T15:12:45;24.77;;;10.57;;
27863;SDS011;15980;51.092;13.916;2023-03-01T15:22:45;26.15;;;11.90;;
27863;SDS011;15980;51.092;13.916;2023-03-01T15:32:46;35.47;;;15.13;;
27863;SDS011;15980;51.092;13.916;2023-03-01T15:42:46;34.30;;;13.93;;
27863;SDS011;15980;51.092;13.916;2023-03-01T15:52:47;27.90;;;13.07;;
27863;SDS011;15980;51.092;13.916;2023-03-01T16:02:47;33.88;;;13.93;;
27863;SDS011;15980;51.092;13.916;2023-03-01T16:12:47;32.65;;;14.13;;
27863;SDS011;15980;51.092;13.916;2023-03-01T16:22:48;35.70;;;13.48;;
27863;SDS011;15980;51.092;13.916;2023-03-01T16:32:49;37.67;;;13.65;;
27863;SDS011;15980;51.092;13.916;2023-03-01T16:42:50;33.50;;;13.75;;
27863;SDS011;15980;51.092;13.916;2023-03-01T16:52:51;42.72;;;14.13;;
27863;SDS011;15980;51.092;13.916;2023-03-01T17:02:51;40.22;;;14.60;;
27863;SDS011;15980;51.092;13.916;2023-03-01T17:12:51;40.33;;;14.95;;
27863;SDS011;15980;51.092;13.916;2023-03-01T17:22:52;40.85;;;15.93;;
27863;SDS011;15980;51.092;13.916;2023-03-01T17:32:52;60.15;;;20.58;;
27863;SDS011;15980;51.092;13.916;2023-03-01T17:42:52;42.55;;;14.43;;
27863;SDS011;15980;51.092;13.916;2023-03-01T17:52:53;39.30;;;15.45;;
27863;SDS011;15980;51.092;13.916;2023-03-01T18:02:53;43.80;;;15.27;;
27863;SDS011;15980;51.092;13.916;2023-03-01T18:12:53;45.08;;;15.55;;
27863;SDS011;15980;51.092;13.916;2023-03-01T18:22:54;42.03;;;15.32;;
27863;SDS011;15980;51.092;13.916;2023-03-01T18:32:54;36.92;;;15.30;;
27863;SDS011;15980;51.092;13.916;2023-03-01T18:42:54;43.35;;;16.25;;
27863;SDS011;15980;51.092;13.916;2023-03-01T18:52:54;47.70;;;17.73;;
27863;SDS011;15980;51.092;13.916;2023-03-01T19:02:55;77.90;;;25.60;;
27863;SDS011;15980;51.092;13.916;2023-03-01T19:12:55;71.82;;;26.17;;
27863;SDS011;15980;51.092;13.916;2023-03-01T19:22:55;62.58;;;25.02;;
27863;SDS011;15980;51.092;13.916;2023-03-01T19:32:56;47.97;;;18.13;;
27863;SDS011;15980;51.092;13.916;2023-03-01T19:42:56;63.00;;;24.98;;
27863;SDS011;15980;51.092;13.916;2023-03-01T19:52:56;60.17;;;23.20;;
27863;SDS011;15980;51.092;13.916;2023-03-01T20:02:57;53.33;;;19.77;;
27863;SDS011;15980;51.092;13.916;2023-03-01T20:12:57;52.78;;;19.50;;
27863;SDS011;15980;51.092;13.916;2023-03-01T20:22:58;51.37;;;18.40;;
27863;SDS011;15980;51.092;13.916;2023-03-01T20:32:58;47.85;;;18.35;;
27863;SDS011;15980;51.092;13.916;2023-03-01T20:42:59;38.80;;;15.80;;
27863;SDS011;15980;51.092;13.916;2023-03-01T20:53:00;29.90;;;11.83;;
27863;SDS011;15980;51.092;13.916;2023-03-01T21:03:00;40.78;;;17.90;;
27863;SDS011;15980;51.092;13.916;2023-03-01T21:13:00;40.03;;;13.25;;
27863;SDS011;15980;51.092;13.916;2023-03-01T21:23:00;47.60;;;16.08;;
27863;SDS011;15980;51.092;13.916;2023-03-01T21:33:01;50.20;;;18.52;;
27863;SDS011;15980;51.092;13.916;2023-03-01T21:43:01;72.22;;;20.77;;
27863;SDS011;15980;51.092;13.916;2023-03-01T21:53:01;58.92;;;19.58;;
27863;SDS011;15980;51.092;13.916;2023-03-01T22:03:02;46.92;;;15.52;;
27863;SDS011;15980;51.092;13.916;2023-03-01T22:13:02;38.90;;;15.43;;
27863;SDS011;15980;51.092;13.916;2023-03-01T22:23:02;38.00;;;14.23;;
27863;SDS011;15980;51.092;13.916;2023-03-01T22:33:03;39.67;;;14.25;;
27863;SDS011;15980;51.092;13.916;2023-03-01T22:43:03;33.50;;;16.33;;
27863;SDS011;15980;51.092;13.916;2023-03-01T22:53:04;40.67;;;13.68;;
27863;SDS011;15980;51.092;13.916;2023-03-01T23:03:04;34.00;;;12.63;;
27863;SDS011;15980;51.092;13.916;2023-03-01T23:13:04;47.55;;;15.35;;
27863;SDS011;15980;51.092;13.916;2023-03-01T23:23:05;36.20;;;13.27;;
27863;SDS011;15980;51.092;13.916;2023-03-01T23:33:05;38.58;;;14.80;;
27863;SDS011;15980;51.092;13.916;2023-03-01T23:43:05;42.50;;;14.70;;
27863;SDS011;15980;51.092;13.916;2023-03-01T23:53:12;37.80;;;14.32;;
